Time;durP1;ratioP1;P1;durP2;ratioP2;P2;SDS_P1;SDS_P2;PMS_P1;PMS_P2;Temp;Humidity;BMP_temperature;BMP_pressure;BME280_temperature;BME280_humidity;BME280_pressure;Samples;Min_cycle;Max_cycle;Signal;HPM_P1;HPM_P2
2021/07/31 05:01:16;;;;;;;13.00;8.50;;;;;;;30.77;49.17;94352.53;5811052;23;20155;-80
2021/07/31 05:03:42;;;;;;;15.68;8.90;;;;;;;31.05;49.17;94350.41;5025690;28;20037;-80
2021/07/31 05:06:07;;;;;;;16.27;8.43;;;;;;;32.26;47.14;94350.00;5031651;28;20025;-81
2021/07/31 05:08:32;;;;;;;17.27;8.48;;;;;;;32.77;46.35;94359.72;4997017;28;20021;-81
2021/07/31 05:10:58;;;;;;;22.55;9.10;;;;;;;33.37;43.61;94358.53;5031407;28;20071;-81
2021/07/31 05:13:24;;;;;;;14.18;8.32;;;;;;;30.23;51.52;94356.41;5030345;28;20082;-80
2021/07/31 05:15:49;;;;;;;13.68;7.60;;;;;;;32.00;47.46;94362.66;5031521;28;20029;-81
2021/07/31 05:18:15;;;;;;;11.90;8.40;;;;;;;32.57;46.22;94360.44;4997704;28;20486;-81
2021/07/31 05:20:44;;;;;;;15.88;9.60;;;;;;;34.80;41.93;94361.22;5014474;28;20483;-82
2021/07/31 05:23:11;;;;;;;15.80;8.85;;;;;;;35.85;39.49;94362.00;5015617;28;20037;-80
2021/07/31 05:25:37;;;;;;;16.87;8.43;;;;;;;35.51;39.82;94363.34;5029325;28;20436;-81
2021/07/31 05:28:03;;;;;;;17.23;7.65;;;;;;;35.13;40.34;94365.69;4998621;28;20028;-81
2021/07/31 05:30:28;;;;;;;15.57;8.23;;;;;;;35.33;39.81;94364.72;5029185;28;20025;-81
2021/07/31 05:32:53;;;;;;;18.33;8.63;;;;;;;35.18;40.05;94378.91;5031382;28;20036;-79
2021/07/31 05:35:19;;;;;;;13.65;8.45;;;;;;;35.74;38.10;94383.28;5047605;28;20033;-80
2021/07/31 05:37:44;;;;;;;19.80;8.57;;;;;;;36.58;37.05;94373.19;5049208;28;20087;-80
2021/07/31 05:40:10;;;;;;;14.05;7.80;;;;;;;36.44;36.92;94384.38;4997750;28;20041;-79
2021/07/31 05:42:36;;;;;;;16.40;7.68;;;;;;;36.40;36.65;94378.13;5029556;28;20021;-81
2021/07/31 05:45:03;;;;;;;10.07;7.78;;;;;;;35.88;36.99;94386.38;5048462;28;20039;-82
2021/07/31 05:47:29;;;;;;;22.20;8.63;;;;;;;36.33;36.68;94380.66;5048103;28;20036;-82
2021/07/31 05:49:55;;;;;;;15.88;8.38;;;;;;;37.00;36.49;94386.94;5049362;28;20036;-82
2021/07/31 05:52:24;;;;;;;16.15;8.77;;;;;;;36.39;36.06;94392.75;5048378;28;20032;-82
2021/07/31 05:54:51;;;;;;;13.73;8.32;;;;;;;36.24;37.31;94396.22;5034763;28;20060;-82
2021/07/31 05:57:16;;;;;;;16.40;9.80;;;;;;;35.57;38.03;94390.84;5033001;28;20097;-82
2021/07/31 05:59:42;;;;;;;15.25;9.10;;;;;;;36.12;37.84;94396.31;5032634;28;20028;-82
2021/07/31 06:02:07;;;;;;;17.85;10.05;;;;;;;36.19;37.80;94401.88;5068179;28;20052;-82
2021/07/31 06:04:33;;;;;;;14.48;9.80;;;;;;;36.62;37.30;94395.66;5032129;28;20117;-82
2021/07/31 06:07:00;;;;;;;16.58;8.98;;;;;;;37.86;35.09;94401.94;5067231;28;20024;-82
2021/07/31 06:09:26;;;;;;;17.55;8.90;;;;;;;37.78;34.84;94397.56;5066671;28;20024;-81
2021/07/31 06:11:52;;;;;;;15.10;9.52;;;;;;;35.70;37.90;94395.91;5050588;28;20031;-82
2021/07/31 06:14:17;;;;;;;17.50;8.52;;;;;;;36.23;37.55;94399.25;5048790;28;20025;-82
2021/07/31 06:16:43;;;;;;;15.93;9.77;;;;;;;37.95;35.43;94394.44;5050196;28;20024;-82
2021/07/31 06:19:08;;;;;;;13.63;9.68;;;;;;;37.60;35.19;94385.56;5033284;28;20029;-82
2021/07/31 06:21:34;;;;;;;14.43;8.40;;;;;;;38.15;35.12;94392.47;5048794;28;20037;-83
2021/07/31 06:23:59;;;;;;;18.08;9.65;;;;;;;38.81;33.51;94389.44;5050776;28;20024;-83
2021/07/31 06:26:25;;;;;;;15.27;9.18;;;;;;;37.38;36.40;94388.94;5031699;28;20032;-82
2021/07/31 06:28:50;;;;;;;16.70;9.38;;;;;;;37.40;36.04;94389.38;5050422;28;20032;-82
2021/07/31 06:31:16;;;;;;;21.35;9.18;;;;;;;38.21;34.86;94388.34;5047678;28;20036;-82
2021/07/31 06:33:41;;;;;;;14.55;9.57;;;;;;;38.61;33.22;94382.50;5066861;28;20477;-82
2021/07/31 06:36:07;;;;;;;15.52;8.55;;;;;;;39.42;32.56;94380.28;5048615;28;20113;-82
2021/07/31 06:38:32;;;;;;;15.68;8.60;;;;;;;36.70;36.50;94389.28;5049184;28;20559;-82
2021/07/31 06:40:58;;;;;;;16.75;8.82;;;;;;;39.11;33.58;94381.34;5033663;28;20401;-82
2021/07/31 06:43:23;;;;;;;20.35;9.32;;;;;;;38.39;34.54;94391.41;5048120;28;20017;-83
2021/07/31 06:45:48;;;;;;;14.35;8.80;;;;;;;38.94;33.41;94379.97;5067139;28;20032;-83
2021/07/31 06:48:14;;;;;;;22.85;11.95;;;;;;;38.50;34.52;94373.41;5047603;28;20028;-82
2021/07/31 06:50:39;;;;;;;17.42;8.98;;;;;;;37.33;34.74;94378.41;5049799;28;20460;-83
2021/07/31 06:53:05;;;;;;;15.13;7.90;;;;;;;38.19;34.56;94373.59;5064298;28;20033;-83
2021/07/31 06:55:30;;;;;;;22.40;9.27;;;;;;;40.39;30.77;94375.63;5066199;28;20032;-83
2021/07/31 06:57:56;;;;;;;19.67;8.48;;;;;;;39.26;32.68;94379.66;5049600;28;20086;-82
2021/07/31 07:00:22;;;;;;;18.52;8.95;;;;;;;39.08;32.76;94376.66;5048434;28;20451;-83
2021/07/31 07:02:47;;;;;;;22.35;10.00;;;;;;;35.36;38.78;94377.53;5032825;28;20480;-83
2021/07/31 07:05:13;;;;;;;15.85;10.10;;;;;;;34.00;41.01;94367.34;5047464;28;20021;-83
2021/07/31 07:07:38;;;;;;;17.20;9.77;;;;;;;34.45;41.32;94375.41;5049961;28;20420;-83
2021/07/31 07:10:05;;;;;;;18.45;9.63;;;;;;;34.55;41.22;94366.91;5047414;28;20488;-83
2021/07/31 07:12:30;;;;;;;20.30;9.63;;;;;;;35.01;40.37;94363.75;5031852;28;20089;-84
2021/07/31 07:14:56;;;;;;;18.08;9.95;;;;;;;35.25;40.15;94362.97;5048250;28;20467;-83
2021/07/31 07:17:21;;;;;;;15.63;9.63;;;;;;;37.26;36.71;94368.22;5048634;28;20031;-83
2021/07/31 07:19:47;;;;;;;18.92;9.68;;;;;;;39.43;31.64;94366.34;5066183;28;20025;-83
2021/07/31 07:22:12;;;;;;;15.40;8.90;;;;;;;39.88;30.97;94359.19;5030841;28;20028;-83
2021/07/31 07:24:38;;;;;;;18.05;8.18;;;;;;;39.28;31.87;94355.66;5049785;28;20409;-84
2021/07/31 07:27:03;;;;;;;17.02;8.98;;;;;;;39.74;31.19;94359.78;5063973;28;20036;-84
2021/07/31 07:29:29;;;;;;;17.02;9.68;;;;;;;39.19;31.82;94358.63;5049617;28;20155;-83
2021/07/31 07:31:54;;;;;;;17.90;9.20;;;;;;;38.24;32.87;94357.88;5047768;28;20016;-82
2021/07/31 07:34:20;;;;;;;14.80;9.82;;;;;;;37.86;33.92;94363.28;5066146;28;20516;-83
2021/07/31 07:36:45;;;;;;;20.98;10.93;;;;;;;35.56;39.04;94356.91;5048551;28;20025;-82
2021/07/31 07:39:10;;;;;;;21.23;10.63;;;;;;;31.53;45.83;94356.41;5031655;28;20032;-81
2021/07/31 07:41:36;;;;;;;19.33;10.50;;;;;;;33.12;43.17;94354.94;5067447;28;20036;-83
2021/07/31 07:44:02;;;;;;;25.10;11.40;;;;;;;33.37;42.22;94359.34;5047339;28;20027;-82
2021/07/31 07:46:28;;;;;;;18.73;9.65;;;;;;;34.31;40.40;94351.50;5049003;28;20028;-83
2021/07/31 07:48:53;;;;;;;17.23;10.15;;;;;;;34.15;39.90;94318.31;5065095;28;20017;-83
2021/07/31 07:51:18;;;;;;;16.67;9.63;;;;;;;33.48;42.12;94346.28;5049051;28;20037;-82
2021/07/31 07:53:44;;;;;;;18.38;9.82;;;;;;;34.43;41.23;94346.13;5048076;28;20028;-81
2021/07/31 07:56:10;;;;;;;22.08;10.38;;;;;;;34.46;41.38;94350.84;5048794;28;20083;-81
2021/07/31 07:58:35;;;;;;;20.33;10.88;;;;;;;34.31;40.70;94346.13;5034484;28;20029;-80
2021/07/31 08:01:00;;;;;;;19.23;9.60;;;;;;;34.96;40.16;94350.53;5014217;28;20041;-81
2021/07/31 08:03:27;;;;;;;16.55;9.43;;;;;;;34.70;39.78;94342.03;5038982;28;20025;-81
2021/07/31 08:05:52;;;;;;;22.02;10.65;;;;;;;33.89;42.09;94338.19;5045995;28;20036;-80
2021/07/31 08:08:17;;;;;;;13.27;9.35;;;;;;;34.48;41.16;94351.31;5034518;28;20025;-80
2021/07/31 08:10:43;;;;;;;15.02;9.27;;;;;;;33.42;42.65;94352.19;5033814;28;20036;-82
2021/07/31 08:13:08;;;;;;;20.08;9.60;;;;;;;32.44;43.46;94349.91;5033849;28;20025;-80
2021/07/31 08:15:34;;;;;;;27.70;10.43;;;;;;;32.88;42.89;94338.63;5034904;28;20036;-80
2021/07/31 08:18:00;;;;;;;18.23;10.02;;;;;;;34.35;42.17;94337.06;5030806;28;20109;-81
2021/07/31 08:20:25;;;;;;;22.77;10.13;;;;;;;34.62;40.52;94332.94;5048285;28;20021;-80
2021/07/31 08:22:50;;;;;;;15.77;9.30;;;;;;;34.11;42.67;94333.53;5022084;28;20034;-80
2021/07/31 08:25:16;;;;;;;14.95;8.68;;;;;;;34.42;39.55;94323.06;5057167;28;20017;-81
2021/07/31 08:27:42;;;;;;;17.08;9.15;;;;;;;34.03;40.11;94323.66;5054875;28;20047;-79
2021/07/31 08:30:08;;;;;;;20.75;8.85;;;;;;;33.16;42.08;94329.00;5043690;28;20411;-82
2021/07/31 08:32:34;;;;;;;20.85;10.57;;;;;;;34.44;41.45;94328.88;5000817;28;20033;-80
2021/07/31 08:35:02;;;;;;;18.33;9.43;;;;;;;34.52;41.86;94325.28;5019924;28;20025;-80
2021/07/31 08:37:28;;;;;;;20.63;9.95;;;;;;;32.52;42.55;94328.41;5033475;28;20030;-80
2021/07/31 08:39:53;;;;;;;23.70;9.93;;;;;;;32.81;41.88;94333.81;4996417;28;20053;-79
2021/07/31 08:42:19;;;;;;;18.13;10.00;;;;;;;33.30;41.60;94334.88;5018596;28;20037;-80
2021/07/31 08:44:44;;;;;;;17.80;9.02;;;;;;;34.52;39.55;94319.88;5027413;28;20493;-81
2021/07/31 08:47:10;;;;;;;23.35;9.30;;;;;;;33.16;41.20;94330.91;5036037;28;20116;-80
2021/07/31 08:49:40;;;;;;;14.95;8.15;;;;;;;34.64;39.91;94322.63;5044511;28;20032;-81
2021/07/31 08:52:06;;;;;;;17.65;8.02;;;;;;;34.79;39.01;94323.84;5031718;28;20048;-82
2021/07/31 08:54:32;;;;;;;18.20;8.90;;;;;;;34.20;40.36;94320.78;5047721;28;20033;-81
2021/07/31 08:56:57;;;;;;;19.98;8.88;;;;;;;35.07;37.81;94318.50;5047565;28;20446;-81
2021/07/31 08:59:29;;;;;;;16.17;8.35;;;;;;;35.37;38.77;94312.50;5065534;28;20028;-82
2021/07/31 09:01:55;;;;;;;21.20;8.85;;;;;;;35.00;39.03;94316.38;5062595;28;20052;-80
2021/07/31 09:04:21;;;;;;;23.95;8.93;;;;;;;35.16;38.98;94311.13;5048191;28;20109;-80
2021/07/31 09:06:46;;;;;;;16.73;8.20;;;;;;;34.47;38.80;94306.66;5045921;28;20104;-81
2021/07/31 09:09:12;;;;;;;18.98;9.57;;;;;;;34.82;39.36;94302.41;5046926;28;20552;-81
2021/07/31 09:11:54;;;;;;;14.48;8.68;;;;;;;33.82;39.89;94296.81;5045632;28;20032;-81
2021/07/31 09:14:20;;;;;;;19.45;9.05;;;;;;;34.96;38.65;94303.97;5046181;28;20021;-82
2021/07/31 09:16:46;;;;;;;20.95;7.78;;;;;;;34.98;38.23;94310.56;5063815;28;20117;-82
2021/07/31 09:19:15;;;;;;;22.95;8.27;;;;;;;34.85;38.30;94301.72;5045789;28;20072;-84
2021/07/31 09:21:41;;;;;;;14.63;8.25;;;;;;;35.53;39.23;94303.69;5046435;28;20020;-81
2021/07/31 09:24:32;;;;;;;22.30;8.70;;;;;;;36.01;36.52;94297.28;5045553;28;20547;-82
2021/07/31 09:26:59;;;;;;;19.40;8.63;;;;;;;35.68;36.51;94306.44;5043523;28;20119;-82
2021/07/31 09:29:31;;;;;;;18.15;8.20;;;;;;;35.23;38.43;94295.94;5029576;28;20470;-81
2021/07/31 09:31:58;;;;;;;18.42;8.60;;;;;;;34.75;39.29;94296.81;5045214;28;20460;-82
2021/07/31 09:34:34;;;;;;;19.85;7.82;;;;;;;34.49;40.07;94293.66;5045202;28;20094;-81
2021/07/31 09:37:12;;;;;;;21.40;8.82;;;;;;;34.84;39.25;94285.91;5019142;28;20030;-82
2021/07/31 09:40:03;;;;;;;15.23;8.48;;;;;;;35.40;36.83;94281.38;5035140;28;20025;-83
2021/07/31 09:42:38;;;;;;;17.35;8.93;;;;;;;33.87;38.74;94283.16;5028092;28;20041;-80
2021/07/31 09:45:08;;;;;;;16.05;8.10;;;;;;;33.64;40.01;94274.72;5024742;28;20394;-80
2021/07/31 09:47:34;;;;;;;21.13;9.20;;;;;;;33.78;38.33;94272.50;5029635;28;20494;-80
2021/07/31 09:50:00;;;;;;;23.80;9.48;;;;;;;32.99;39.58;94269.25;5045348;28;20078;-81
2021/07/31 09:52:32;;;;;;;15.50;8.98;;;;;;;34.02;39.33;94258.31;5047348;28;20029;-80
2021/07/31 09:54:58;;;;;;;17.35;8.60;;;;;;;34.12;39.44;94263.28;5045089;28;20028;-80
2021/07/31 09:57:26;;;;;;;18.73;8.82;;;;;;;34.81;38.12;94255.06;5047078;28;20021;-80
2021/07/31 09:59:52;;;;;;;16.85;7.68;;;;;;;35.32;36.54;94261.53;5029062;28;20025;-81
2021/07/31 10:02:20;;;;;;;23.38;9.93;;;;;;;34.10;38.21;94259.34;5044671;28;20044;-79
2021/07/31 10:04:46;;;;;;;20.52;8.73;;;;;;;35.40;37.95;94257.91;5057576;28;20087;-81
2021/07/31 10:07:12;;;;;;;20.23;8.13;;;;;;;35.36;36.42;94256.25;5003259;28;20040;-82
2021/07/31 10:09:49;;;;;;;19.30;9.15;;;;;;;35.10;37.73;94258.59;5027991;28;20049;-81
2021/07/31 10:12:15;;;;;;;19.20;8.23;;;;;;;34.69;37.36;94251.59;5021843;28;20041;-81
2021/07/31 10:14:41;;;;;;;19.38;7.85;;;;;;;34.89;37.69;94243.38;5020120;28;20064;-81
2021/07/31 10:17:07;;;;;;;21.95;8.38;;;;;;;34.81;38.03;94235.41;5039184;28;21010;-81
2021/07/31 10:19:40;;;;;;;18.58;9.57;;;;;;;34.46;37.57;94224.34;5008330;28;20398;-79
2021/07/31 10:22:05;;;;;;;14.32;8.50;;;;;;;34.60;37.91;94219.44;5025801;28;20100;-79
2021/07/31 10:24:50;;;;;;;18.98;7.57;;;;;;;35.27;37.83;94225.97;5012146;28;20032;-84
2021/07/31 10:27:16;;;;;;;19.10;8.25;;;;;;;35.85;36.58;94227.94;5029052;28;20483;-80
2021/07/31 10:29:48;;;;;;;19.17;8.57;;;;;;;35.27;36.80;94225.97;5026101;28;20025;-81
2021/07/31 10:32:20;;;;;;;19.08;7.65;;;;;;;35.36;37.48;94223.91;4992326;28;20025;-80
2021/07/31 10:34:47;;;;;;;21.80;8.45;;;;;;;35.14;36.21;94225.25;5026692;28;20506;-81
2021/07/31 10:37:29;;;;;;;20.50;8.73;;;;;;;35.95;35.12;94219.31;5023988;28;20475;-84
2021/07/31 10:40:04;;;;;;;16.73;8.10;;;;;;;36.22;36.42;94214.19;5026285;28;20601;-81
2021/07/31 10:42:51;;;;;;;12.57;7.80;;;;;;;36.22;36.28;94214.19;5024894;28;20025;-82
2021/07/31 10:45:16;;;;;;;18.85;7.82;;;;;;;35.33;36.87;94216.50;5025203;28;20038;-82
2021/07/31 10:47:45;;;;;;;16.65;7.78;;;;;;;34.36;37.18;94209.47;5026674;28;20093;-80
2021/07/31 10:50:26;;;;;;;21.38;7.97;;;;;;;35.30;36.21;94209.13;5004212;28;20048;-82
2021/07/31 10:52:51;;;;;;;21.42;8.07;;;;;;;36.27;34.81;94205.81;5039705;28;20070;-82
2021/07/31 10:55:20;;;;;;;18.75;7.55;;;;;;;36.04;35.34;94199.44;5029131;28;20075;-82
2021/07/31 10:57:52;;;;;;;19.50;7.45;;;;;;;35.73;35.15;94200.25;5008325;28;20056;-81
2021/07/31 11:00:24;;;;;;;22.48;8.02;;;;;;;36.52;35.13;94198.25;5024947;28;20526;-81
2021/07/31 11:02:49;;;;;;;20.45;8.60;;;;;;;35.77;35.39;94196.50;5023682;28;20140;-80
2021/07/31 11:05:15;;;;;;;17.20;7.82;;;;;;;36.24;35.16;94193.81;5024057;28;20091;-82
2021/07/31 11:08:00;;;;;;;20.75;8.18;;;;;;;36.22;35.14;94198.00;5036366;28;20026;-81
2021/07/31 11:10:43;;;;;;;15.52;7.85;;;;;;;35.63;34.43;94198.06;5030409;28;20086;-80
2021/07/31 11:13:18;;;;;;;16.17;7.18;;;;;;;35.47;33.13;94189.16;5027661;28;20031;-80
2021/07/31 11:15:55;;;;;;;28.27;8.55;;;;;;;34.95;33.23;94198.13;5023307;28;20037;-80
2021/07/31 11:18:45;;;;;;;24.17;8.52;;;;;;;34.66;33.73;94184.97;5039756;28;20037;-79
2021/07/31 11:21:18;;;;;;;16.65;7.78;;;;;;;34.94;33.25;94188.47;5035080;28;20035;-80
2021/07/31 11:23:47;;;;;;;25.13;8.82;;;;;;;34.75;31.63;94189.09;5032049;28;20421;-82
2021/07/31 11:26:13;;;;;;;16.98;7.13;;;;;;;34.75;32.22;94188.31;5041258;28;20025;-81
2021/07/31 11:28:38;;;;;;;21.38;8.50;;;;;;;34.44;32.68;94183.56;5039474;28;20181;-81
2021/07/31 11:31:17;;;;;;;15.52;7.30;;;;;;;34.70;32.66;94183.19;5061174;28;20028;-80
2021/07/31 11:33:43;;;;;;;18.58;8.15;;;;;;;34.52;31.67;94179.94;5031632;28;20054;-79
2021/07/31 11:36:13;;;;;;;18.85;8.18;;;;;;;35.05;33.17;94178.00;5027362;28;20052;-79
2021/07/31 11:38:40;;;;;;;22.58;8.32;;;;;;;35.18;33.96;94171.47;4998781;28;20113;-80
2021/07/31 11:41:05;;;;;;;15.55;6.93;;;;;;;35.39;32.80;94174.69;5045403;28;20098;-80
2021/07/31 11:43:47;;;;;;;21.17;7.22;;;;;;;35.18;32.13;94160.69;5029111;28;20025;-80
2021/07/31 11:46:24;;;;;;;13.95;7.15;;;;;;;35.13;33.29;94164.41;5042833;28;20025;-80
2021/07/31 11:48:50;;;;;;;22.85;7.85;;;;;;;34.96;32.57;94166.59;5045549;28;20034;-81
2021/07/31 11:51:15;;;;;;;17.60;8.10;;;;;;;35.44;32.28;94158.28;5044150;28;20028;-80
2021/07/31 11:53:41;;;;;;;20.90;8.13;;;;;;;35.63;35.29;94158.41;5060872;28;20032;-80
2021/07/31 11:56:12;;;;;;;20.98;7.80;;;;;;;36.02;35.32;94153.94;5045084;28;20029;-80
2021/07/31 11:58:40;;;;;;;14.60;7.65;;;;;;;35.41;35.13;94154.38;5047639;28;20087;-82
2021/07/31 12:01:07;;;;;;;20.02;9.27;;;;;;;34.87;35.47;94156.75;5064859;28;20041;-80
2021/07/31 12:03:45;;;;;;;16.30;7.32;;;;;;;34.89;35.51;94162.59;5054458;28;20037;-77
2021/07/31 12:06:32;;;;;;;16.33;7.35;;;;;;;34.80;34.87;94158.47;5037913;28;20036;-79
2021/07/31 12:09:01;;;;;;;12.75;7.43;;;;;;;35.06;35.30;94160.72;5033132;28;20139;-80
2021/07/31 12:11:33;;;;;;;23.10;7.78;;;;;;;35.01;35.80;94163.66;5038084;28;20561;-76
2021/07/31 12:13:59;;;;;;;19.98;8.30;;;;;;;34.76;33.93;94163.75;5031890;28;20025;-79
2021/07/31 12:16:28;;;;;;;17.13;8.02;;;;;;;34.79;34.91;94162.28;5046576;28;20040;-79
2021/07/31 12:18:53;;;;;;;22.50;8.30;;;;;;;34.68;36.99;94166.59;5047865;28;20040;-80
2021/07/31 12:21:23;;;;;;;14.27;7.28;;;;;;;34.94;35.21;94175.78;5046313;28;20025;-80
2021/07/31 12:23:49;;;;;;;12.70;8.15;;;;;;;34.74;35.49;94166.00;5064361;28;20029;-83
2021/07/31 12:26:14;;;;;;;18.92;8.48;;;;;;;34.64;35.79;94173.78;5046898;28;20029;-81
2021/07/31 12:28:40;;;;;;;16.42;8.82;;;;;;;34.17;39.53;94168.91;5047041;28;20045;-80
2021/07/31 12:31:28;;;;;;;23.92;9.13;;;;;;;34.02;40.26;94177.63;5064260;28;20029;-80
2021/07/31 12:33:54;;;;;;;14.95;8.52;;;;;;;34.47;41.06;94179.41;5046920;28;20096;-77
2021/07/31 12:36:19;;;;;;;18.70;9.15;;;;;;;34.69;40.49;94181.59;5048197;28;20513;-80
2021/07/31 12:38:45;;;;;;;14.50;8.02;;;;;;;34.96;40.34;94188.16;5046219;28;20468;-78
2021/07/31 12:41:10;;;;;;;29.55;9.20;;;;;;;33.83;39.30;94197.03;5030816;28;20040;-79
2021/07/31 12:43:36;;;;;;;20.35;8.55;;;;;;;32.48;40.05;94190.66;5046622;28;20099;-80
2021/07/31 12:46:02;;;;;;;23.75;8.82;;;;;;;32.36;40.15;94193.28;5046835;28;20482;-79
2021/07/31 12:48:28;;;;;;;19.00;8.93;;;;;;;32.36;39.55;94204.81;5030502;28;20516;-79
2021/07/31 12:50:53;;;;;;;22.48;9.30;;;;;;;32.18;40.19;94207.88;5046423;28;20029;-79
2021/07/31 12:53:20;;;;;;;14.85;7.93;;;;;;;32.11;40.15;94223.72;5047356;28;20462;-83
2021/07/31 12:55:45;;;;;;;18.48;8.52;;;;;;;31.84;41.12;94224.91;5045712;28;20029;-77
2021/07/31 12:58:11;;;;;;;14.43;7.60;;;;;;;31.94;41.01;94234.50;5046965;28;20078;-77
2021/07/31 13:00:37;;;;;;;23.15;8.80;;;;;;;32.09;40.82;94233.97;5045665;28;20071;-79
2021/07/31 13:03:03;;;;;;;21.70;7.97;;;;;;;31.62;41.32;94241.22;5033597;28;20473;-76
2021/07/31 13:05:28;;;;;;;17.85;7.72;;;;;;;30.89;42.23;94234.97;5049883;28;20013;-77
2021/07/31 13:07:58;;;;;;;23.23;9.02;;;;;;;30.63;42.85;94234.19;5067301;28;20027;-77
2021/07/31 13:10:23;;;;;;;12.23;7.75;;;;;;;30.61;42.14;94234.50;5050481;28;20024;-76
2021/07/31 13:12:49;;;;;;;17.63;7.78;;;;;;;30.50;42.66;94232.44;5048631;28;20032;-77
2021/07/31 13:15:18;;;;;;;15.38;7.88;;;;;;;30.41;42.98;94237.75;5050078;28;20029;-80
2021/07/31 13:17:44;;;;;;;19.67;8.35;;;;;;;30.56;43.01;94225.84;5049203;28;20028;-77
2021/07/31 13:20:13;;;;;;;15.45;7.82;;;;;;;30.39;43.18;94234.59;5033203;28;20025;-80
2021/07/31 13:22:39;;;;;;;12.93;7.35;;;;;;;31.05;41.96;94224.63;5033687;28;20044;-81
2021/07/31 13:25:05;;;;;;;15.88;6.72;;;;;;;31.11;41.90;94226.03;5049286;28;20036;-78
2021/07/31 13:27:30;;;;;;;19.85;7.63;;;;;;;31.04;41.88;94229.19;4992897;28;20041;-82
2021/07/31 13:29:56;;;;;;;11.40;7.40;;;;;;;30.91;41.90;94235.47;5056623;28;20036;-75
2021/07/31 13:32:21;;;;;;;21.65;8.25;;;;;;;31.09;40.88;94233.56;5057220;28;20047;-84
2021/07/31 13:34:47;;;;;;;19.40;8.48;;;;;;;30.84;40.44;94232.47;5008306;28;20676;-84
2021/07/31 13:37:24;;;;;;;17.85;7.68;;;;;;;30.99;41.36;94226.66;5023987;28;20474;-81
2021/07/31 13:39:52;;;;;;;15.10;7.25;;;;;;;31.16;41.57;94234.69;5030767;28;20032;-80
2021/07/31 13:42:17;;;;;;;20.13;8.30;;;;;;;30.81;42.04;94225.84;5012913;28;20025;-81
2021/07/31 13:44:46;;;;;;;11.48;7.10;;;;;;;30.75;41.63;94226.31;5004746;28;20035;-78
2021/07/31 13:47:12;;;;;;;16.38;7.60;;;;;;;30.69;42.47;94228.38;4991904;28;20045;-77
2021/07/31 13:49:37;;;;;;;8.52;6.55;;;;;;;30.67;42.24;94225.22;4993026;28;20029;-80
2021/07/31 13:52:03;;;;;;;18.60;7.70;;;;;;;30.31;42.48;94222.78;4991791;28;20136;-85
2021/07/31 13:54:29;;;;;;;17.75;7.40;;;;;;;30.12;43.20;94219.59;5010334;28;20398;-85
2021/07/31 13:56:56;;;;;;;17.48;7.35;;;;;;;29.80;44.60;94217.25;4992865;28;20422;-84
2021/07/31 13:59:21;;;;;;;12.02;7.53;;;;;;;29.64;44.59;94219.56;5025395;28;20036;-82
2021/07/31 14:01:47;;;;;;;12.93;7.75;;;;;;;29.39;46.08;94222.09;5009251;28;20052;-83
2021/07/31 14:04:13;;;;;;;14.35;6.88;;;;;;;29.16;46.74;94223.97;5008917;28;20038;-85
2021/07/31 14:06:38;;;;;;;19.23;7.82;;;;;;;29.01;47.34;94227.00;5009229;28;20035;-84
2021/07/31 14:09:04;;;;;;;15.73;6.47;;;;;;;29.10;46.45;94231.31;5008114;28;20056;-84
2021/07/31 14:11:30;;;;;;;15.65;7.22;;;;;;;29.08;46.59;94241.50;5020878;28;20472;-82
2021/07/31 14:13:55;;;;;;;19.80;7.53;;;;;;;28.98;47.92;94243.63;5023882;28;20079;-83
2021/07/31 14:16:21;;;;;;;13.65;7.95;;;;;;;28.74;51.18;94249.22;5009296;28;20597;-80
2021/07/31 14:18:46;;;;;;;16.30;8.30;;;;;;;28.67;54.23;94257.66;5025985;28;20025;-79
2021/07/31 14:21:14;;;;;;;21.48;9.60;;;;;;;27.79;67.13;94273.25;5025094;28;20969;-81
2021/07/31 14:23:39;;;;;;;47.00;14.40;;;;;;;27.16;73.81;94279.88;5026698;28;20026;-80
2021/07/31 14:26:11;;;;;;;35.83;14.35;;;;;;;26.06;79.00;94275.00;5008263;28;20024;-84
2021/07/31 14:28:37;;;;;;;33.05;15.00;;;;;;;25.87;77.76;94268.84;5008818;28;20111;-87
2021/07/31 14:31:03;;;;;;;24.58;12.05;;;;;;;25.42;76.77;94258.66;5025752;28;20071;-86
2021/07/31 14:33:29;;;;;;;27.85;11.98;;;;;;;25.41;73.12;94249.91;4993268;28;20069;-86
2021/07/31 14:35:54;;;;;;;30.38;15.20;;;;;;;24.14;89.09;94254.50;5007636;28;20037;-83
2021/07/31 14:38:20;;;;;;;26.88;13.82;;;;;;;24.00;87.75;94256.09;5008671;28;20029;-84
2021/07/31 14:40:45;;;;;;;27.38;14.00;;;;;;;24.46;87.14;94254.06;5021606;28;20024;-82
2021/07/31 14:43:10;;;;;;;22.73;12.82;;;;;;;24.72;85.19;94254.69;5039490;28;20033;-82
2021/07/31 14:45:36;;;;;;;21.58;12.13;;;;;;;24.85;83.69;94257.53;5039611;28;20033;-83
2021/07/31 14:48:01;;;;;;;21.30;12.77;;;;;;;24.57;84.99;94256.38;5028772;28;20052;-82
2021/07/31 14:50:27;;;;;;;17.10;11.60;;;;;;;24.39;82.20;94243.78;5007955;28;20124;-85
2021/07/31 14:52:53;;;;;;;19.52;12.90;;;;;;;24.43;86.38;94263.34;4990452;28;20021;-84
2021/07/31 14:55:18;;;;;;;26.92;13.68;;;;;;;24.56;84.93;94256.66;5008534;28;20505;-82
2021/07/31 14:57:44;;;;;;;26.52;11.85;;;;;;;24.46;81.70;94256.72;5023940;28;20033;-85
2021/07/31 15:00:10;;;;;;;21.85;12.82;;;;;;;24.44;83.90;94258.81;5025812;28;20036;-85
2021/07/31 15:02:36;;;;;;;25.20;14.00;;;;;;;24.60;85.17;94255.00;5005723;28;20077;-85
2021/07/31 15:05:02;;;;;;;24.73;16.27;;;;;;;24.38;89.31;94247.47;5020049;28;20064;-83
2021/07/31 15:07:27;;;;;;;27.65;13.98;;;;;;;24.51;81.74;94240.78;4988795;28;20433;-79
2021/07/31 15:09:53;;;;;;;21.13;14.98;;;;;;;24.26;87.47;94243.56;5003912;28;20030;-81
2021/07/31 15:12:18;;;;;;;16.52;11.18;;;;;;;24.40;84.98;94226.78;5004412;28;20381;-78
2021/07/31 15:14:44;;;;;;;17.95;11.85;;;;;;;24.63;83.37;94225.31;5004262;28;20061;-81
2021/07/31 15:17:14;;;;;;;21.92;13.60;;;;;;;24.72;87.88;94242.25;5005682;28;20522;-84
2021/07/31 15:19:40;;;;;;;27.33;19.45;;;;;;;24.50;91.27;94239.97;5006187;28;20159;-84
2021/07/31 15:22:05;;;;;;;39.13;30.85;;;;;;;24.39;91.47;94243.78;4987466;28;20124;-84
2021/07/31 15:24:31;;;;;;;53.65;45.08;;;;;;;23.63;91.07;94259.16;4988962;28;20036;-86
2021/07/31 15:26:56;;;;;;;61.70;51.05;;;;;;;23.96;92.68;94276.22;4986702;28;20601;-85
2021/07/31 15:29:22;;;;;;;27.90;19.85;;;;;;;24.00;93.71;94277.28;5020955;28;20125;-85
2021/07/31 15:31:47;;;;;;;26.30;21.83;;;;;;;24.11;94.33;94276.97;5006224;28;20490;-86
2021/07/31 15:34:13;;;;;;;25.60;19.17;;;;;;;24.20;95.12;94295.75;4991887;28;20424;-84
2021/07/31 15:36:38;;;;;;;25.42;19.70;;;;;;;24.00;96.30;94309.81;4992004;28;20557;-83
2021/07/31 15:39:04;;;;;;;39.85;18.05;;;;;;;23.97;93.77;94322.78;5009143;28;20422;-84
2021/07/31 15:41:30;;;;;;;36.00;19.65;;;;;;;23.89;93.26;94323.38;5009849;28;20031;-84
2021/07/31 15:43:55;;;;;;;33.65;19.73;;;;;;;23.66;94.77;94322.09;5008514;28;20085;-84
2021/07/31 15:46:21;;;;;;;27.58;18.77;;;;;;;23.72;95.34;94323.66;4992070;28;20525;-84
2021/07/31 15:48:46;;;;;;;29.85;18.25;;;;;;;23.91;94.09;94337.91;5006962;28;20018;-84
2021/07/31 15:51:12;;;;;;;35.80;21.65;;;;;;;23.41;95.05;94349.31;5007987;28;20026;-85
2021/07/31 15:53:37;;;;;;;36.97;19.30;;;;;;;23.26;95.47;94364.34;4991098;28;20506;-84
2021/07/31 15:56:05;;;;;;;34.80;20.10;;;;;;;23.01;94.50;94378.34;5019607;28;20030;-86
2021/07/31 15:58:31;;;;;;;32.15;20.00;;;;;;;22.31;94.31;94384.16;5008038;28;20040;-81
2021/07/31 16:00:56;;;;;;;33.17;19.25;;;;;;;22.28;94.99;94385.47;4994261;28;20045;-84
2021/07/31 16:03:22;;;;;;;35.63;22.63;;;;;;;21.87;95.71;94355.41;5028095;28;20036;-87
2021/07/31 16:05:47;;;;;;;27.00;20.35;;;;;;;22.06;94.53;94347.88;5027970;28;20021;-85
2021/07/31 16:08:13;;;;;;;32.67;21.25;;;;;;;21.85;95.92;94354.06;5011121;28;20034;-85
2021/07/31 16:10:39;;;;;;;30.27;21.23;;;;;;;21.83;95.83;94358.81;4993827;28;20021;-84
2021/07/31 16:13:05;;;;;;;30.08;21.65;;;;;;;21.90;95.65;94367.31;4994457;28;20093;-83
2021/07/31 16:15:30;;;;;;;29.08;19.38;;;;;;;22.02;93.71;94346.81;5011074;28;20025;-87
2021/07/31 16:17:55;;;;;;;27.75;18.15;;;;;;;22.04;93.03;94332.31;5010754;28;20036;-82
2021/07/31 16:20:21;;;;;;;39.88;25.90;;;;;;;22.34;96.38;94334.31;5027336;28;20124;-83
2021/07/31 16:22:47;;;;;;;36.10;26.00;;;;;;;22.10;98.69;94338.41;4993768;28;20029;-85
2021/07/31 16:25:12;;;;;;;24.77;19.92;;;;;;;22.36;96.83;94340.09;5027410;28;20033;-82